createdAt,value
2019-03-12T00:00:46.421Z,980.33
2019-03-12T00:01:56.381Z,980.34
2019-03-12T00:03:06.294Z,980.31
2019-03-12T00:04:16.360Z,980.36
2019-03-12T00:05:26.374Z,980.37
2019-03-12T00:06:36.293Z,980.35
2019-03-12T00:07:46.217Z,980.35
2019-03-12T00:08:56.132Z,980.34
2019-03-12T00:10:06.096Z,980.34
2019-03-12T00:11:16.009Z,980.34
2019-03-12T00:12:25.919Z,980.35
2019-03-12T00:13:35.585Z,980.32
2019-03-12T00:14:45.500Z,980.29
2019-03-12T00:15:55.454Z,980.31
2019-03-12T00:17:05.368Z,980.3
2019-03-12T00:18:15.287Z,980.29
2019-03-12T00:19:28.586Z,980.35
2019-03-12T00:20:38.502Z,980.33
2019-03-12T00:21:48.528Z,980.31
2019-03-12T00:22:58.438Z,980.29
2019-03-12T00:24:08.123Z,980.29
2019-03-12T00:25:18.048Z,980.23
2019-03-12T00:26:27.957Z,980.23
2019-03-12T00:27:37.918Z,980.25
2019-03-12T00:28:47.828Z,980.27
2019-03-12T00:29:57.736Z,980.29
2019-03-12T00:31:22.485Z,980.27
2019-03-12T00:32:32.391Z,980.26
2019-03-12T00:33:42.301Z,980.24
2019-03-12T00:34:52.230Z,980.24
2019-03-12T00:36:02.142Z,980.22
2019-03-12T00:37:12.064Z,980.27
2019-03-12T00:38:22.024Z,980.31
2019-03-12T00:39:31.681Z,980.31
2019-03-12T00:40:41.593Z,980.23
2019-03-12T00:41:51.498Z,980.22
2019-03-12T00:43:01.416Z,980.27
2019-03-12T00:44:11.375Z,980.31
2019-03-12T00:45:21.339Z,980.35
2019-03-12T00:46:31.265Z,980.41
2019-03-12T00:47:41.186Z,980.34
2019-03-12T00:48:51.100Z,980.37
2019-03-12T00:50:01.117Z,980.37
2019-03-12T00:51:11.034Z,980.33
2019-03-12T00:52:20.948Z,980.37
2019-03-12T00:53:30.859Z,980.39
2019-03-12T00:54:40.769Z,980.34
2019-03-12T00:55:50.792Z,980.33
2019-03-12T00:57:00.705Z,980.36
2019-03-12T00:58:10.368Z,980.31
2019-03-12T00:59:20.278Z,980.29
2019-03-12T01:00:30.192Z,980.31
2019-03-12T01:01:40.161Z,980.32
2019-03-12T01:02:50.092Z,980.32
2019-03-12T01:04:00.110Z,980.38
2019-03-12T01:05:10.022Z,980.36
2019-03-12T01:06:19.950Z,980.4
2019-03-12T01:07:29.910Z,980.41
2019-03-12T01:08:39.824Z,980.4
2019-03-12T01:09:49.765Z,980.37
2019-03-12T01:10:59.693Z,980.32
2019-03-12T01:12:09.601Z,980.27
2019-03-12T01:13:19.561Z,980.28
2019-03-12T01:14:29.474Z,980.27
2019-03-12T01:15:39.383Z,980.21
2019-03-12T01:16:49.292Z,980.2
2019-03-12T01:17:59.214Z,980.24
2019-03-12T01:19:09.195Z,980.21
2019-03-12T01:20:19.119Z,980.23
2019-03-12T01:21:29.037Z,980.32
2019-03-12T01:22:38.962Z,980.27
2019-03-12T01:23:48.878Z,980.25
2019-03-12T01:24:58.894Z,980.24
2019-03-12T01:26:08.802Z,980.24
2019-03-12T01:27:18.709Z,980.27
2019-03-12T01:28:28.619Z,980.27
2019-03-12T01:29:38.616Z,980.32
2019-03-12T01:30:48.626Z,980.27
2019-03-12T01:31:58.280Z,980.31
2019-03-12T01:33:08.192Z,980.21
2019-03-12T01:34:18.102Z,980.23
2019-03-12T01:35:28.018Z,980.11
2019-03-12T01:36:38.035Z,980.11
2019-03-12T01:37:47.692Z,980.06
2019-03-12T01:38:57.610Z,980.02
2019-03-12T01:40:07.305Z,980.08
2019-03-12T01:41:17.220Z,980.05
2019-03-12T01:42:27.180Z,980.04
2019-03-12T01:43:36.840Z,980.06
2019-03-12T01:44:46.753Z,980.08
2019-03-12T01:45:56.668Z,980.11
2019-03-12T01:47:06.595Z,980.09
2019-03-12T01:48:16.607Z,980.09
2019-03-12T01:49:26.514Z,980.07
2019-03-12T01:50:36.465Z,980.06
2019-03-12T01:51:46.373Z,980
2019-03-12T01:52:56.285Z,980.02
2019-03-12T01:54:06.306Z,980.04
2019-03-12T01:55:16.234Z,980.04
2019-03-12T01:56:26.177Z,980.11
2019-03-12T01:57:36.081Z,980.08
2019-03-12T01:58:45.995Z,980.1
2019-03-12T01:59:55.964Z,980.15
2019-03-12T02:01:05.981Z,980.19
2019-03-12T02:02:15.893Z,980.2
2019-03-12T02:03:25.801Z,980.16
2019-03-12T02:04:35.719Z,980.12
2019-03-12T02:05:45.727Z,980.13
2019-03-12T02:06:57.428Z,980.18
2019-03-12T02:08:07.486Z,980.29
2019-03-12T02:09:17.398Z,980.27
2019-03-12T02:10:27.321Z,980.36
2019-03-12T02:11:37.295Z,980.32
2019-03-12T02:12:47.212Z,980.35
2019-03-12T02:13:56.867Z,980.31
2019-03-12T02:15:06.773Z,980.28
2019-03-12T02:16:16.691Z,980.32
2019-03-12T02:17:26.701Z,980.38
2019-03-12T02:18:36.634Z,980.32
2019-03-12T02:19:46.550Z,980.35
2019-03-12T02:20:56.461Z,980.34
2019-03-12T02:22:06.371Z,980.29
2019-03-12T02:23:16.389Z,980.32
2019-03-12T02:24:29.509Z,980.36
2019-03-12T02:25:52.414Z,980.34
2019-03-12T02:27:02.320Z,980.35
2019-03-12T02:28:12.225Z,980.4
2019-03-12T02:29:22.151Z,980.41
2019-03-12T02:30:32.061Z,980.39
2019-03-12T02:31:42.003Z,980.36
2019-03-12T02:32:51.936Z,980.43
2019-03-12T02:34:01.625Z,980.38
2019-03-12T02:35:11.557Z,980.37
2019-03-12T02:36:21.255Z,980.37
2019-03-12T02:37:31.275Z,980.34
2019-03-12T02:38:41.191Z,980.36
2019-03-12T02:39:51.169Z,980.29
2019-03-12T02:41:01.108Z,980.32
2019-03-12T02:42:12.727Z,980.42
2019-03-12T02:43:22.815Z,980.44
2019-03-12T02:44:32.755Z,980.44
2019-03-12T02:45:42.783Z,980.45
2019-03-12T02:46:52.720Z,980.49
2019-03-12T02:48:02.639Z,980.42
2019-03-12T02:49:12.595Z,980.41
2019-03-12T02:50:22.514Z,980.42
2019-03-12T02:51:32.505Z,980.41
2019-03-12T02:52:42.177Z,980.42
2019-03-12T02:53:52.103Z,980.45
2019-03-12T02:55:02.112Z,980.48
2019-03-12T02:56:12.080Z,980.54
2019-03-12T02:57:22.093Z,980.47
2019-03-12T02:58:32.073Z,980.46
2019-03-12T02:59:42.003Z,980.42
2019-03-12T03:00:51.915Z,980.45
2019-03-12T03:02:01.863Z,980.44
2019-03-12T03:03:11.746Z,980.42
2019-03-12T03:04:21.671Z,980.45
2019-03-12T03:05:31.588Z,980.44
2019-03-12T03:06:41.502Z,980.41
2019-03-12T03:07:51.443Z,980.39
2019-03-12T03:09:01.565Z,980.43
2019-03-12T03:10:11.486Z,980.42
2019-03-12T03:11:21.428Z,980.48
2019-03-12T03:12:31.358Z,980.39
2019-03-12T03:13:41.038Z,980.4
2019-03-12T03:14:51.072Z,980.36
2019-03-12T03:16:01.090Z,980.4
2019-03-12T03:17:10.774Z,980.42
2019-03-12T03:18:20.699Z,980.43
2019-03-12T03:19:30.639Z,980.42
2019-03-12T03:20:40.700Z,980.45
2019-03-12T03:21:50.632Z,980.43
2019-03-12T03:23:00.556Z,980.39
2019-03-12T03:24:10.512Z,980.39
2019-03-12T03:25:20.193Z,980.4
2019-03-12T03:26:30.208Z,980.39
2019-03-12T03:27:39.630Z,980.39
2019-03-12T03:28:49.589Z,980.39
2019-03-12T03:29:59.524Z,980.35
2019-03-12T03:31:09.503Z,980.36
2019-03-12T03:32:19.524Z,980.37
2019-03-12T03:33:29.661Z,980.32
2019-03-12T03:34:39.610Z,980.24
2019-03-12T03:35:49.543Z,980.21
2019-03-12T03:36:59.513Z,980.21
2019-03-12T03:38:09.666Z,980.22
2019-03-12T03:39:19.603Z,980.24
2019-03-12T03:40:29.532Z,980.24
2019-03-12T03:41:39.493Z,980.23
2019-03-12T03:42:49.442Z,980.22
2019-03-12T03:43:59.509Z,980.21
2019-03-12T03:45:09.426Z,980.23
2019-03-12T03:46:19.382Z,980.16
2019-03-12T03:47:29.306Z,980.14
2019-03-12T03:48:39.075Z,980.18
2019-03-12T03:49:49.119Z,980.09
2019-03-12T03:50:59.076Z,980.01
2019-03-12T03:52:08.788Z,980.05
2019-03-12T03:53:18.790Z,980.02
2019-03-12T03:54:28.721Z,979.98
2019-03-12T03:55:38.672Z,979.95
2019-03-12T03:56:48.604Z,979.95
2019-03-12T03:57:58.531Z,979.93
2019-03-12T03:59:08.471Z,979.89
2019-03-12T04:00:18.401Z,979.84
2019-03-12T04:01:28.476Z,979.83
2019-03-12T04:02:38.406Z,979.9
2019-03-12T04:03:48.510Z,979.92
2019-03-12T04:04:58.440Z,979.93
2019-03-12T04:06:08.409Z,979.94
2019-03-12T04:07:18.425Z,979.95
2019-03-12T04:08:28.366Z,979.91
2019-03-12T04:09:38.345Z,979.95
2019-03-12T04:10:48.276Z,979.94
2019-03-12T04:11:58.269Z,979.94
2019-03-12T04:13:08.248Z,980
2019-03-12T04:14:18.178Z,980
2019-03-12T04:15:28.125Z,979.98
2019-03-12T04:16:38.131Z,980
2019-03-12T04:17:48.109Z,979.95
2019-03-12T04:18:58.154Z,979.96
2019-03-12T04:20:08.081Z,979.92
2019-03-12T04:21:18.049Z,979.89
2019-03-12T04:22:28.016Z,979.89
2019-03-12T04:23:37.942Z,979.88
2019-03-12T04:24:47.975Z,979.91
2019-03-12T04:25:57.912Z,979.85
2019-03-12T04:27:07.857Z,979.9
2019-03-12T04:28:17.971Z,979.88
2019-03-12T04:29:27.988Z,979.89
2019-03-12T04:30:38.016Z,979.91
2019-03-12T04:31:47.956Z,979.88
2019-03-12T04:32:57.872Z,979.86
2019-03-12T04:34:07.782Z,979.84
2019-03-12T04:35:17.724Z,979.86
2019-03-12T04:36:27.649Z,979.83
2019-03-12T04:37:37.599Z,979.77
2019-03-12T04:38:47.528Z,979.73
2019-03-12T04:39:57.537Z,979.62
2019-03-12T04:41:07.458Z,979.57
2019-03-12T04:42:17.483Z,979.55
2019-03-12T04:43:27.163Z,979.56
2019-03-12T04:44:37.070Z,979.61
2019-03-12T04:45:46.977Z,979.61
2019-03-12T04:46:56.885Z,979.56
2019-03-12T04:48:06.846Z,979.6
2019-03-12T04:49:16.753Z,979.66
2019-03-12T04:50:26.664Z,979.67
2019-03-12T04:51:36.659Z,979.67
2019-03-12T04:52:46.572Z,979.66
2019-03-12T04:53:56.627Z,979.64
2019-03-12T04:55:06.541Z,979.67
2019-03-12T04:56:16.452Z,979.64
2019-03-12T04:57:26.376Z,979.65
2019-03-12T04:58:36.296Z,979.67
2019-03-12T04:59:46.304Z,979.74
2019-03-12T05:00:56.214Z,979.79
2019-03-12T05:02:06.165Z,979.82
2019-03-12T05:03:16.078Z,979.77
2019-03-12T05:04:25.985Z,979.78
2019-03-12T05:05:35.993Z,979.79
2019-03-12T05:06:45.904Z,979.75
2019-03-12T05:07:55.817Z,979.76
2019-03-12T05:09:05.738Z,979.75
2019-03-12T05:10:15.650Z,979.75
2019-03-12T05:11:25.359Z,979.78
2019-03-12T05:12:35.276Z,979.76
2019-03-12T05:13:45.190Z,979.77
2019-03-12T05:14:55.104Z,979.77
2019-03-12T05:16:05.008Z,979.73
2019-03-12T05:17:14.971Z,979.76
2019-03-12T05:18:24.880Z,979.77
2019-03-12T05:19:34.538Z,979.74
2019-03-12T05:20:44.445Z,979.68
2019-03-12T05:21:54.362Z,979.66
2019-03-12T05:23:04.376Z,979.67
2019-03-12T05:24:14.308Z,979.68
2019-03-12T05:25:24.231Z,979.69
2019-03-12T05:26:34.141Z,979.71
2019-03-12T05:27:44.049Z,979.68
2019-03-12T05:28:54.020Z,979.67
2019-03-12T05:30:03.924Z,979.68
2019-03-12T05:31:13.839Z,979.59
2019-03-12T05:32:23.499Z,979.58
2019-03-12T05:33:33.418Z,979.58
2019-03-12T05:34:43.402Z,979.56
2019-03-12T05:35:53.337Z,979.63
2019-03-12T05:37:03.249Z,979.62
2019-03-12T05:38:12.911Z,979.66
2019-03-12T05:39:22.843Z,979.68
2019-03-12T05:40:32.801Z,979.69
2019-03-12T05:41:42.710Z,979.69
2019-03-12T05:42:52.381Z,979.68
2019-03-12T05:44:02.039Z,979.68
2019-03-12T05:45:11.946Z,979.67
2019-03-12T05:46:21.964Z,979.64
2019-03-12T05:47:31.873Z,979.66
2019-03-12T05:48:41.782Z,979.65
2019-03-12T05:49:51.703Z,979.63
2019-03-12T05:51:01.607Z,979.63
2019-03-12T05:52:11.564Z,979.63
2019-03-12T05:53:21.472Z,979.62
2019-03-12T05:54:31.379Z,979.64
2019-03-12T05:55:41.286Z,979.67
2019-03-12T05:56:51.206Z,979.66
2019-03-12T05:58:01.250Z,979.62
2019-03-12T05:59:11.158Z,979.6
2019-03-12T06:00:21.066Z,979.62
2019-03-12T06:01:30.974Z,979.67
2019-03-12T06:02:40.879Z,979.73
2019-03-12T06:03:50.846Z,979.73
2019-03-12T06:05:00.757Z,979.7
2019-03-12T06:06:10.723Z,979.68
2019-03-12T06:07:20.645Z,979.65
2019-03-12T06:08:30.668Z,979.59
2019-03-12T06:09:40.691Z,979.63
2019-03-12T06:10:50.596Z,979.63
2019-03-12T06:12:00.508Z,979.7
2019-03-12T06:13:10.426Z,979.67
2019-03-12T06:14:20.334Z,979.67
2019-03-12T06:15:30.095Z,979.67
2019-03-12T06:16:40.002Z,979.65
2019-03-12T06:17:49.716Z,979.66
2019-03-12T06:18:59.625Z,979.59
2019-03-12T06:20:09.540Z,979.61
2019-03-12T06:21:19.564Z,979.64
2019-03-12T06:22:29.481Z,979.63
2019-03-12T06:23:39.399Z,979.65
2019-03-12T06:24:49.323Z,979.66
2019-03-12T06:25:58.983Z,979.66
2019-03-12T06:27:09.105Z,979.62
2019-03-12T06:28:21.105Z,979.64
2019-03-12T06:29:34.042Z,979.57
2019-03-12T06:30:43.955Z,979.58
2019-03-12T06:31:53.875Z,979.55
2019-03-12T06:33:03.883Z,979.61
2019-03-12T06:34:13.799Z,979.59
2019-03-12T06:35:23.705Z,979.62
2019-03-12T06:36:33.661Z,979.58
2019-03-12T06:37:43.573Z,979.51
2019-03-12T06:38:53.531Z,979.5
2019-03-12T06:40:03.451Z,979.51
2019-03-12T06:41:13.456Z,979.56
2019-03-12T06:42:23.369Z,979.47
2019-03-12T06:43:33.280Z,979.42
2019-03-12T06:44:43.351Z,979.46
2019-03-12T06:45:53.274Z,979.46
2019-03-12T06:47:03.212Z,979.47
2019-03-12T06:48:13.124Z,979.47
2019-03-12T06:49:23.040Z,979.44
2019-03-12T06:50:33.058Z,979.44
2019-03-12T06:51:42.984Z,979.4
2019-03-12T06:52:52.943Z,979.38
2019-03-12T06:54:02.852Z,979.41
2019-03-12T06:55:12.767Z,979.4
2019-03-12T06:56:22.795Z,979.39
2019-03-12T06:57:32.711Z,979.4
2019-03-12T06:58:42.616Z,979.36
2019-03-12T06:59:52.541Z,979.41
2019-03-12T07:01:02.460Z,979.42
2019-03-12T07:02:15.675Z,979.46
2019-03-12T07:03:25.583Z,979.48
2019-03-12T07:04:35.495Z,979.48
2019-03-12T07:05:45.412Z,979.52
2019-03-12T07:06:55.073Z,979.5
2019-03-12T07:08:17.666Z,979.45
2019-03-12T07:09:27.578Z,979.42
2019-03-12T07:10:37.496Z,979.39
2019-03-12T07:11:47.411Z,979.34
2019-03-12T07:12:57.331Z,979.28
2019-03-12T07:14:07.346Z,979.32
2019-03-12T07:15:17.264Z,979.28
2019-03-12T07:16:27.172Z,979.22
2019-03-12T07:17:37.079Z,979.19
2019-03-12T07:18:48.645Z,979.18
2019-03-12T07:19:58.452Z,979.15
2019-03-12T07:21:08.455Z,979.14
2019-03-12T07:22:18.387Z,979.17
2019-03-12T07:23:28.308Z,979.17
2019-03-12T07:24:38.219Z,979.16
2019-03-12T07:25:50.630Z,979.22
2019-03-12T07:27:00.981Z,979.3
2019-03-12T07:28:10.915Z,979.27
2019-03-12T07:29:20.579Z,979.27
2019-03-12T07:30:30.493Z,979.24
2019-03-12T07:31:40.238Z,979.2
2019-03-12T07:32:49.949Z,979.13
2019-03-12T07:34:01.594Z,979.09
2019-03-12T07:35:11.256Z,979.08
2019-03-12T07:36:23.294Z,979.09
2019-03-12T07:37:33.315Z,979.07
2019-03-12T07:38:43.236Z,978.99
2019-03-12T07:39:53.162Z,979.02
2019-03-12T07:41:03.005Z,979.05
2019-03-12T07:42:33.093Z,979.05
2019-03-12T07:43:43.110Z,979.13
2019-03-12T07:44:53.047Z,979.18
2019-03-12T07:46:03.060Z,979.25
2019-03-12T07:47:12.978Z,979.27
2019-03-12T07:48:35.618Z,979.25
2019-03-12T07:49:45.549Z,979.24
2019-03-12T07:50:55.463Z,979.22
2019-03-12T07:52:08.494Z,979.16
2019-03-12T07:53:18.595Z,979.15
2019-03-12T07:54:28.569Z,979.18
2019-03-12T07:55:38.490Z,979.11
2019-03-12T07:56:48.408Z,979.06
2019-03-12T07:57:58.324Z,979.01
2019-03-12T07:59:09.079Z,978.98
2019-03-12T08:00:19.243Z,978.97
2019-03-12T08:01:29.180Z,978.99
2019-03-12T08:02:39.103Z,978.94
2019-03-12T08:03:49.042Z,978.95
2019-03-12T08:05:02.035Z,978.94
2019-03-12T08:06:12.078Z,978.98
2019-03-12T08:07:22.008Z,979.01
2019-03-12T08:08:31.674Z,979
2019-03-12T08:09:41.592Z,978.93
2019-03-12T08:10:51.498Z,979.03
2019-03-12T08:12:01.462Z,979
2019-03-12T08:13:11.370Z,978.96
2019-03-12T08:14:21.288Z,978.91
2019-03-12T08:15:34.564Z,978.9
2019-03-12T08:16:44.491Z,978.83
2019-03-12T08:17:54.453Z,978.8
2019-03-12T08:19:04.453Z,978.72
2019-03-12T08:20:14.367Z,978.71
2019-03-12T08:21:24.293Z,978.7
2019-03-12T08:22:34.223Z,978.75
2019-03-12T08:23:44.188Z,978.72
2019-03-12T08:24:54.107Z,978.68
2019-03-12T08:26:04.028Z,978.69
2019-03-12T08:27:13.950Z,978.75
2019-03-12T08:28:26.626Z,978.71
2019-03-12T08:29:36.663Z,978.67
2019-03-12T08:30:46.577Z,978.68
2019-03-12T08:31:56.487Z,978.69
2019-03-12T08:33:06.403Z,978.68
2019-03-12T08:34:16.356Z,978.68
2019-03-12T08:35:26.357Z,978.68
2019-03-12T08:36:36.277Z,978.68
2019-03-12T08:37:46.188Z,978.65
2019-03-12T08:38:56.099Z,978.68
2019-03-12T08:40:06.024Z,978.69
2019-03-12T08:41:15.942Z,978.77
2019-03-12T08:42:25.855Z,978.8
2019-03-12T08:43:35.763Z,978.87
2019-03-12T08:44:45.683Z,978.85
2019-03-12T08:45:55.628Z,978.79
2019-03-12T08:47:05.408Z,978.72
2019-03-12T08:48:15.360Z,978.63
2019-03-12T08:49:25.280Z,978.57
2019-03-12T08:50:37.722Z,978.63
2019-03-12T08:51:47.644Z,978.6
2019-03-12T08:52:57.666Z,978.62
2019-03-12T08:54:07.584Z,978.61
2019-03-12T08:55:17.501Z,978.61
2019-03-12T08:56:27.418Z,978.61
2019-03-12T08:57:40.396Z,978.6
2019-03-12T08:58:50.359Z,978.61
2019-03-12T09:00:00.406Z,978.63
2019-03-12T09:01:10.374Z,978.62
2019-03-12T09:02:20.285Z,978.63
2019-03-12T09:03:30.198Z,978.64
2019-03-12T09:04:40.269Z,978.58
2019-03-12T09:05:50.188Z,978.51
2019-03-12T09:07:00.119Z,978.41
2019-03-12T09:08:12.816Z,978.36
2019-03-12T09:09:22.749Z,978.3
2019-03-12T09:10:32.665Z,978.3
2019-03-12T09:11:42.599Z,978.28
2019-03-12T09:12:52.514Z,978.26
2019-03-12T09:14:02.425Z,978.3
2019-03-12T09:15:12.371Z,978.29
2019-03-12T09:16:22.385Z,978.35
2019-03-12T09:17:32.304Z,978.39
2019-03-12T09:18:42.236Z,978.41
2019-03-12T09:19:52.147Z,978.42
2019-03-12T09:21:02.091Z,978.33
2019-03-12T09:22:12.105Z,978.26
2019-03-12T09:23:22.020Z,978.2
2019-03-12T09:24:31.936Z,978.16
2019-03-12T09:25:41.851Z,978.08
2019-03-12T09:26:51.763Z,978.03
2019-03-12T09:28:01.776Z,978.02
2019-03-12T09:29:11.687Z,977.99
2019-03-12T09:30:21.625Z,977.99
2019-03-12T09:31:31.542Z,977.95
2019-03-12T09:32:41.465Z,977.93
2019-03-12T09:33:51.486Z,977.93
2019-03-12T09:35:01.178Z,977.94
2019-03-12T09:36:11.095Z,977.91
2019-03-12T09:37:21.017Z,977.85
2019-03-12T09:38:30.943Z,977.8
2019-03-12T09:39:41.036Z,977.76
2019-03-12T09:40:50.961Z,977.67
2019-03-12T09:42:00.883Z,977.63
2019-03-12T09:43:10.800Z,977.59
2019-03-12T09:44:20.712Z,977.6
2019-03-12T09:45:30.708Z,977.59
2019-03-12T09:46:40.640Z,977.63
2019-03-12T09:47:50.299Z,977.65
2019-03-12T09:49:00.212Z,977.62
2019-03-12T09:50:09.875Z,977.59
2019-03-12T09:51:19.836Z,977.51
2019-03-12T09:52:29.751Z,977.49
2019-03-12T09:53:39.690Z,977.52
2019-03-12T09:54:49.609Z,977.5
2019-03-12T09:55:59.543Z,977.49
2019-03-12T09:57:09.572Z,977.49
2019-03-12T09:58:19.485Z,977.44
2019-03-12T09:59:29.399Z,977.5
2019-03-12T10:00:39.314Z,977.46
2019-03-12T10:01:49.242Z,977.5
2019-03-12T10:03:02.446Z,977.49
2019-03-12T10:04:12.392Z,977.47
2019-03-12T10:05:22.973Z,977.42
2019-03-12T10:06:32.899Z,977.39
2019-03-12T10:07:42.829Z,977.38
2019-03-12T10:08:52.743Z,977.34
2019-03-12T10:10:02.666Z,977.3
2019-03-12T10:11:12.605Z,977.28
2019-03-12T10:12:22.526Z,977.27
2019-03-12T10:13:32.448Z,977.22
2019-03-12T10:14:42.166Z,977.23
2019-03-12T10:15:52.084Z,977.16
2019-03-12T10:17:02.003Z,977.13
2019-03-12T10:18:11.933Z,977.13
2019-03-12T10:19:21.849Z,977.09
2019-03-12T10:20:31.819Z,977.13
2019-03-12T10:21:41.748Z,977.1
2019-03-12T10:22:51.670Z,977.11
2019-03-12T10:24:01.590Z,977.16
2019-03-12T10:25:11.514Z,977.13
2019-03-12T10:26:21.438Z,977.06
2019-03-12T10:27:31.372Z,977.07
2019-03-12T10:28:41.041Z,977.04
2019-03-12T10:29:50.983Z,977.09
2019-03-12T10:31:00.903Z,977.04
2019-03-12T10:32:10.926Z,977.08
2019-03-12T10:33:20.852Z,977.03
2019-03-12T10:34:30.585Z,977.05
2019-03-12T10:35:40.510Z,977.03
2019-03-12T10:36:50.487Z,977.01
2019-03-12T10:38:16.912Z,977.1
2019-03-12T10:39:26.833Z,977.16
2019-03-12T10:40:36.748Z,977.21
2019-03-12T10:41:46.670Z,977.1
2019-03-12T10:42:56.584Z,977.07
2019-03-12T10:44:06.508Z,977.06
2019-03-12T10:45:16.470Z,977.05
2019-03-12T10:46:26.492Z,977.03
2019-03-12T10:47:36.413Z,977
2019-03-12T10:48:46.090Z,976.96
2019-03-12T10:49:56.018Z,976.92
2019-03-12T10:51:05.945Z,976.84
2019-03-12T10:52:18.367Z,976.85
2019-03-12T10:53:28.284Z,976.79
2019-03-12T10:54:38.214Z,976.74
2019-03-12T10:55:48.135Z,976.72
2019-03-12T10:56:58.078Z,976.67
2019-03-12T10:58:07.997Z,976.63
2019-03-12T10:59:17.939Z,976.58
2019-03-12T11:00:27.959Z,976.55
2019-03-12T11:01:37.900Z,976.56
2019-03-12T11:02:47.814Z,976.52
2019-03-12T11:03:57.739Z,976.55
2019-03-12T11:05:07.656Z,976.58
2019-03-12T11:06:17.717Z,976.52
2019-03-12T11:07:27.632Z,976.45
2019-03-12T11:08:37.319Z,976.46
2019-03-12T11:09:47.233Z,976.51
2019-03-12T11:10:57.249Z,976.53
2019-03-12T11:12:07.195Z,976.45
2019-03-12T11:13:17.147Z,976.45
2019-03-12T11:14:27.075Z,976.4
2019-03-12T11:15:37.005Z,976.44
2019-03-12T11:16:46.939Z,976.38
2019-03-12T11:17:56.740Z,976.37
2019-03-12T11:19:06.655Z,976.34
2019-03-12T11:20:16.585Z,976.28
2019-03-12T11:21:26.507Z,976.26
2019-03-12T11:22:36.424Z,976.22
2019-03-12T11:23:46.351Z,976.2
2019-03-12T11:24:56.270Z,976.15
2019-03-12T11:26:06.189Z,976.04
2019-03-12T11:27:15.856Z,976.04
2019-03-12T11:28:26.793Z,976.02
2019-03-12T11:29:36.956Z,975.98
2019-03-12T11:30:46.894Z,975.92
2019-03-12T11:31:56.812Z,975.87
2019-03-12T11:33:06.827Z,975.88
2019-03-12T11:34:16.849Z,975.85
2019-03-12T11:35:26.945Z,975.79
2019-03-12T11:36:46.815Z,975.71
2019-03-12T11:37:56.956Z,975.69
2019-03-12T11:39:07.134Z,975.65
2019-03-12T11:40:17.434Z,975.61
2019-03-12T11:41:32.910Z,975.57
2019-03-12T11:42:42.636Z,975.49
2019-03-12T11:43:52.498Z,975.47
2019-03-12T11:45:02.528Z,975.46
2019-03-12T11:46:43.817Z,975.4
2019-03-12T11:47:55.424Z,975.36
2019-03-12T11:49:05.454Z,975.38
2019-03-12T11:50:15.338Z,975.26
2019-03-12T11:51:25.977Z,975.22
2019-03-12T11:52:36.096Z,975.19
2019-03-12T11:53:59.757Z,975.21
2019-03-12T11:55:10.321Z,975.25
2019-03-12T11:56:20.508Z,975.19
2019-03-12T11:57:30.631Z,975.22
2019-03-12T11:58:40.694Z,975.22
2019-03-12T11:59:50.780Z,975.26
2019-03-12T12:01:01.761Z,975.15
2019-03-12T12:02:11.885Z,975.13
2019-03-12T12:03:21.990Z,975.05
2019-03-12T12:04:31.909Z,975
2019-03-12T12:05:41.827Z,974.97
2019-03-12T12:06:51.762Z,974.83
2019-03-12T12:08:01.750Z,974.86
2019-03-12T12:09:11.758Z,974.82
2019-03-12T12:10:21.454Z,974.8
2019-03-12T12:11:31.541Z,974.84
2019-03-12T12:12:41.464Z,974.81
2019-03-12T12:13:51.379Z,974.79
2019-03-12T12:15:01.451Z,974.75
2019-03-12T12:16:11.370Z,974.76
2019-03-12T12:17:21.057Z,974.77
2019-03-12T12:18:30.978Z,974.74
2019-03-12T12:19:40.902Z,974.73
2019-03-12T12:20:50.925Z,974.65
2019-03-12T12:22:00.950Z,974.64
2019-03-12T12:23:10.870Z,974.67
2019-03-12T12:24:20.790Z,974.69
2019-03-12T12:25:34.132Z,974.67
2019-03-12T12:26:44.098Z,974.69
2019-03-12T12:27:54.019Z,974.65
2019-03-12T12:29:03.938Z,974.6
2019-03-12T12:30:13.853Z,974.5
2019-03-12T12:31:23.543Z,974.51
2019-03-12T12:32:33.563Z,974.5
2019-03-12T12:33:43.492Z,974.49
2019-03-12T12:34:53.427Z,974.46
2019-03-12T12:36:03.371Z,974.43
2019-03-12T12:37:13.916Z,974.38
2019-03-12T12:38:24.078Z,974.35
2019-03-12T12:39:33.752Z,974.41
2019-03-12T12:40:43.687Z,974.36
2019-03-12T12:41:53.614Z,974.33
2019-03-12T12:43:03.550Z,974.35
2019-03-12T12:44:13.518Z,974.29
2019-03-12T12:45:23.452Z,974.21
2019-03-12T12:46:33.370Z,974.13
2019-03-12T12:47:43.312Z,974.15
2019-03-12T12:48:53.364Z,974.18
2019-03-12T12:50:03.677Z,974.23
2019-03-12T12:51:13.599Z,974.17
2019-03-12T12:52:23.527Z,974.13
2019-03-12T12:53:33.468Z,974.1
2019-03-12T12:54:43.383Z,974.11
2019-03-12T12:55:53.419Z,974.13
2019-03-12T12:57:03.351Z,974.06
2019-03-12T12:58:13.281Z,974.07
2019-03-12T12:59:23.198Z,974.09
2019-03-12T13:00:33.132Z,974.04
2019-03-12T13:01:45.933Z,974.01
2019-03-12T13:02:55.847Z,973.91
2019-03-12T13:04:05.768Z,973.86
2019-03-12T13:05:15.710Z,973.77
2019-03-12T13:06:25.638Z,973.76
2019-03-12T13:07:35.713Z,973.73
2019-03-12T13:08:45.638Z,973.62
2019-03-12T13:09:55.559Z,973.49
2019-03-12T13:11:05.556Z,973.43
2019-03-12T13:12:15.563Z,973.37
2019-03-12T13:13:25.785Z,973.42
2019-03-12T13:14:41.198Z,973.3
2019-03-12T13:15:51.604Z,973.15
2019-03-12T13:17:01.528Z,973.19
2019-03-12T13:18:11.199Z,973.12
2019-03-12T13:19:24.207Z,973.03
2019-03-12T13:20:34.293Z,973.04
2019-03-12T13:21:44.219Z,973.01
2019-03-12T13:22:54.154Z,972.99
2019-03-12T13:24:04.076Z,972.9
2019-03-12T13:25:14.059Z,972.86
2019-03-12T13:26:23.980Z,972.8
2019-03-12T13:27:41.939Z,972.72
2019-03-12T13:28:52.491Z,972.73
2019-03-12T13:30:02.420Z,972.76
2019-03-12T13:31:12.436Z,972.68
2019-03-12T13:32:22.228Z,972.66
2019-03-12T13:33:32.863Z,972.59
2019-03-12T13:34:42.886Z,972.5
2019-03-12T13:35:52.804Z,972.44
2019-03-12T13:37:02.779Z,972.41
2019-03-12T13:38:12.707Z,972.39
2019-03-12T13:39:23.071Z,972.34
2019-03-12T13:40:33.267Z,972.35
2019-03-12T13:41:43.655Z,972.37
2019-03-12T13:42:54.124Z,972.3
2019-03-12T13:44:04.141Z,972.18
2019-03-12T13:45:14.089Z,972.12
2019-03-12T13:46:24.406Z,972.07
2019-03-12T13:47:34.821Z,972.05
2019-03-12T13:48:44.920Z,972.02
2019-03-12T13:49:54.921Z,971.97
2019-03-12T13:51:05.560Z,971.97
2019-03-12T13:52:15.617Z,971.92
2019-03-12T13:53:25.575Z,971.84
2019-03-12T13:54:35.785Z,971.86
2019-03-12T13:55:45.771Z,971.82
2019-03-12T13:56:55.805Z,971.83
2019-03-12T13:58:05.726Z,971.84
2019-03-12T13:59:15.774Z,971.76
2019-03-12T14:00:28.247Z,971.7
2019-03-12T14:01:41.131Z,971.75
2019-03-12T14:02:51.078Z,971.72
2019-03-12T14:04:10.283Z,971.68
2019-03-12T14:05:20.473Z,971.67
2019-03-12T14:06:30.463Z,971.69
2019-03-12T14:07:42.994Z,971.7
2019-03-12T14:08:52.917Z,971.61
2019-03-12T14:10:02.590Z,971.64
2019-03-12T14:11:12.658Z,971.64
2019-03-12T14:12:22.607Z,971.63
2019-03-12T14:13:32.529Z,971.55
2019-03-12T14:14:42.197Z,971.52
2019-03-12T14:15:52.111Z,971.58
2019-03-12T14:17:02.137Z,971.5
2019-03-12T14:18:13.750Z,971.47
2019-03-12T14:19:23.681Z,971.49
2019-03-12T14:20:33.349Z,971.42
2019-03-12T14:21:43.289Z,971.36
2019-03-12T14:22:53.266Z,971.38
2019-03-12T14:24:03.208Z,971.35
2019-03-12T14:25:13.141Z,971.32
2019-03-12T14:26:22.869Z,971.32
2019-03-12T14:27:32.794Z,971.23
2019-03-12T14:28:42.813Z,971.23
2019-03-12T14:29:55.505Z,971.15
2019-03-12T14:31:05.644Z,971.03
2019-03-12T14:32:15.573Z,971.04
2019-03-12T14:33:25.515Z,970.99
2019-03-12T14:34:35.533Z,970.89
2019-03-12T14:35:51.149Z,970.92
2019-03-12T14:37:01.724Z,970.92
2019-03-12T14:38:11.404Z,970.9
2019-03-12T14:39:21.334Z,970.87
2019-03-12T14:40:31.398Z,970.86